Time;durP1;ratioP1;P1;durP2;ratioP2;P2;SDS_P1;SDS_P2;PMS_P1;PMS_P2;Temp;Humidity;BMP_temperature;BMP_pressure;BME280_temperature;BME280_humidity;BME280_pressure;Samples;Min_cycle;Max_cycle;Signal;HPM_P1;HPM_P2
2023/12/20 00:00:59;;;;;;;0.30;0.20;;;;;;;6.71;100.00;100284.16;4985824;28;20547;-52
2023/12/20 00:03:26;;;;;;;0.27;0.20;;;;;;;6.77;100.00;100285.88;4966631;28;20948;-52
2023/12/20 00:05:52;;;;;;;0.20;0.20;;;;;;;6.82;100.00;100289.31;4981894;28;20454;-52
2023/12/20 00:08:19;;;;;;;0.30;0.20;;;;;;;6.83;100.00;100289.28;4979385;28;20448;-52
2023/12/20 00:10:45;;;;;;;0.30;0.20;;;;;;;6.76;100.00;100281.47;4984013;28;20530;-53
2023/12/20 00:13:12;;;;;;;0.30;0.20;;;;;;;6.82;100.00;100274.34;4979220;28;20445;-52
2023/12/20 00:15:38;;;;;;;0.30;0.20;;;;;;;6.92;100.00;100280.38;4980247;28;20824;-53
2023/12/20 00:18:05;;;;;;;0.20;0.20;;;;;;;6.89;100.00;100280.44;4977129;28;20964;-52
2023/12/20 00:20:31;;;;;;;0.30;0.20;;;;;;;6.92;100.00;100288.31;4980113;28;20458;-52
2023/12/20 00:22:58;;;;;;;0.20;0.20;;;;;;;7.15;100.00;100287.97;4985329;28;20470;-53
2023/12/20 00:25:25;;;;;;;0.30;0.10;;;;;;;7.08;100.00;100283.66;4984245;28;20516;-53
2023/12/20 00:27:51;;;;;;;0.30;0.20;;;;;;;7.10;100.00;100273.94;4982372;28;20459;-53
2023/12/20 00:30:18;;;;;;;0.30;0.20;;;;;;;7.05;100.00;100274.03;4983150;28;20474;-52
2023/12/20 00:32:46;;;;;;;0.30;0.20;;;;;;;7.13;100.00;100271.28;4988902;28;20942;-52
2023/12/20 00:35:14;;;;;;;0.30;0.20;;;;;;;7.07;100.00;100274.00;4972368;28;20454;-53
2023/12/20 00:37:40;;;;;;;0.30;0.20;;;;;;;7.02;100.00;100275.84;4988612;28;20875;-52
2023/12/20 00:40:07;;;;;;;0.30;0.20;;;;;;;6.92;100.00;100272.44;4988790;28;20488;-54
2023/12/20 00:42:35;;;;;;;0.30;0.20;;;;;;;6.95;100.00;100264.47;4967939;28;20447;-52
2023/12/20 00:45:04;;;;;;;0.30;0.20;;;;;;;7.03;100.00;100259.97;4982307;28;20425;-52
2023/12/20 00:47:31;;;;;;;0.30;0.20;;;;;;;6.99;100.00;100252.09;4988235;28;20645;-53
2023/12/20 00:49:58;;;;;;;0.30;0.20;;;;;;;7.00;100.00;100260.00;4983208;28;20510;-52
2023/12/20 00:52:25;;;;;;;0.30;0.20;;;;;;;6.96;100.00;100250.34;4983716;28;20468;-52
2023/12/20 00:54:52;;;;;;;0.30;0.20;;;;;;;6.90;100.00;100254.88;4981966;28;20462;-53
2023/12/20 00:57:18;;;;;;;0.30;0.20;;;;;;;7.00;100.00;100253.84;4982033;28;20453;-53
2023/12/20 00:59:44;;;;;;;0.30;0.20;;;;;;;6.93;100.00;100252.19;4981385;28;20990;-52
2023/12/20 01:02:11;;;;;;;0.30;0.20;;;;;;;7.00;100.00;100248.56;4986893;28;20447;-53
2023/12/20 01:04:37;;;;;;;0.30;0.20;;;;;;;6.93;100.00;100245.13;4987561;28;21062;-52
2023/12/20 01:07:04;;;;;;;0.30;0.20;;;;;;;6.72;100.00;100243.69;4983452;28;20476;-52
2023/12/20 01:09:30;;;;;;;0.30;0.20;;;;;;;6.90;100.00;100255.75;4980161;28;20478;-52
2023/12/20 01:11:57;;;;;;;0.30;0.20;;;;;;;6.81;100.00;100254.09;4982206;28;20567;-53
2023/12/20 01:14:23;;;;;;;0.30;0.20;;;;;;;6.84;100.00;100248.75;4981348;28;20529;-52
2023/12/20 01:16:50;;;;;;;0.30;0.20;;;;;;;6.77;100.00;100255.03;4987566;28;20505;-52
2023/12/20 01:19:16;;;;;;;0.30;0.20;;;;;;;6.77;100.00;100252.41;4984588;28;20852;-53
2023/12/20 01:21:43;;;;;;;0.30;0.10;;;;;;;6.80;100.00;100260.28;4982832;28;20461;-54
2023/12/20 01:24:09;;;;;;;0.30;0.20;;;;;;;6.88;100.00;100256.66;4981054;28;20796;-50
2023/12/20 01:26:36;;;;;;;0.30;0.20;;;;;;;6.86;100.00;100246.13;4985603;28;20450;-51
2023/12/20 01:29:02;;;;;;;0.30;0.20;;;;;;;6.79;100.00;100247.97;4987968;28;20573;-51
2023/12/20 01:31:29;;;;;;;1.33;1.33;;;;;;;6.67;100.00;100241.97;4982140;28;20493;-52
2023/12/20 01:33:56;;;;;;;0.20;0.10;;;;;;;6.80;100.00;100243.56;4981416;28;20459;-51
2023/12/20 01:36:22;;;;;;;0.30;0.20;;;;;;;6.68;100.00;100244.59;4986525;28;20932;-51
2023/12/20 01:38:49;;;;;;;0.30;0.20;;;;;;;6.77;100.00;100257.69;5002657;22;21799;-51
2023/12/20 01:41:15;;;;;;;0.30;0.10;;;;;;;6.65;100.00;100257.84;4990340;28;20512;-52
2023/12/20 01:43:42;;;;;;;0.30;0.20;;;;;;;6.55;100.00;100256.22;4980824;28;20534;-51
2023/12/20 01:46:17;;;;;;;0.20;0.20;;;;;;;6.54;100.00;100252.69;5003222;28;20451;-51
2023/12/20 01:48:44;;;;;;;0.30;0.20;;;;;;;6.71;100.00;100265.69;4993598;28;20485;-51
2023/12/20 01:51:11;;;;;;;0.30;0.20;;;;;;;6.78;100.00;100272.63;4984719;28;20501;-51
2023/12/20 01:53:39;;;;;;;0.20;0.10;;;;;;;6.82;100.00;100265.53;4987087;28;20454;-51
2023/12/20 01:56:06;;;;;;;0.30;0.20;;;;;;;6.61;100.00;100269.34;4984148;28;21025;-51
2023/12/20 01:58:33;;;;;;;0.30;0.20;;;;;;;6.53;100.00;100256.22;4979004;28;20464;-52
2023/12/20 02:00:59;;;;;;;0.83;0.80;;;;;;;6.65;100.00;100263.13;4984637;28;20545;-51
2023/12/20 02:03:26;;;;;;;0.30;0.20;;;;;;;6.59;100.00;100251.78;4983832;28;20871;-51
2023/12/20 02:05:52;;;;;;;0.20;0.20;;;;;;;6.54;100.00;100262.38;4982906;28;20462;-51
2023/12/20 02:08:19;;;;;;;0.23;0.20;;;;;;;6.70;100.00;100258.66;4991047;28;20449;-51
2023/12/20 02:10:45;;;;;;;0.20;0.20;;;;;;;6.69;100.00;100256.91;4993126;28;20536;-51
2023/12/20 02:13:12;;;;;;;0.20;0.20;;;;;;;6.50;100.00;100243.06;4989529;28;20533;-52
2023/12/20 02:15:38;;;;;;;0.30;0.20;;;;;;;6.44;100.00;100232.59;4984518;28;20957;-51
2023/12/20 02:18:06;;;;;;;0.20;0.20;;;;;;;6.27;100.00;100231.91;4980075;28;20456;-51
2023/12/20 02:20:32;;;;;;;0.27;0.20;;;;;;;6.24;100.00;100230.19;4981963;28;20474;-51
2023/12/20 02:22:59;;;;;;;0.30;0.20;;;;;;;6.36;100.00;100239.75;4977947;28;20500;-51
2023/12/20 02:25:25;;;;;;;0.30;0.20;;;;;;;6.53;100.00;100237.75;4981954;28;20968;-51
2023/12/20 02:27:52;;;;;;;0.20;0.10;;;;;;;6.51;100.00;100241.31;4978806;28;20544;-51
2023/12/20 02:30:18;;;;;;;0.23;0.20;;;;;;;6.61;100.00;100244.72;4981855;28;20481;-51
2023/12/20 02:32:45;;;;;;;0.20;0.20;;;;;;;6.73;100.00;100244.56;4988097;28;20999;-51
2023/12/20 02:35:11;;;;;;;0.20;0.20;;;;;;;6.69;100.00;100243.69;4993019;28;20461;-52
2023/12/20 02:37:38;;;;;;;0.30;0.20;;;;;;;6.73;100.00;100240.16;4984034;28;20462;-51
2023/12/20 02:40:05;;;;;;;0.30;0.20;;;;;;;6.77;100.00;100241.84;4974012;28;20577;-51
2023/12/20 02:42:31;;;;;;;0.20;0.20;;;;;;;6.87;100.00;100231.16;4979027;28;20544;-53
2023/12/20 02:44:58;;;;;;;0.30;0.20;;;;;;;6.71;100.00;100249.81;4980857;28;21007;-53
2023/12/20 02:47:24;;;;;;;0.27;0.20;;;;;;;6.78;100.00;100256.78;4988289;28;20568;-53
2023/12/20 02:49:52;;;;;;;0.30;0.20;;;;;;;6.67;100.00;100248.13;4980765;28;20506;-54
2023/12/20 02:52:19;;;;;;;0.20;0.20;;;;;;;6.64;100.00;100249.94;4986381;28;20490;-52
2023/12/20 02:54:45;;;;;;;0.30;0.20;;;;;;;6.83;100.00;100249.66;4985080;28;20640;-54
2023/12/20 02:57:13;;;;;;;0.20;0.20;;;;;;;6.89;100.00;100243.44;4978782;28;20508;-53
2023/12/20 02:59:39;;;;;;;0.30;0.20;;;;;;;6.85;100.00;100231.13;4979592;28;20479;-53
2023/12/20 03:02:06;;;;;;;0.30;0.20;;;;;;;6.89;100.00;100234.63;4992666;28;20528;-53
2023/12/20 03:04:32;;;;;;;0.30;0.20;;;;;;;6.96;100.00;100255.66;4992234;28;20481;-54
2023/12/20 03:06:59;;;;;;;0.20;0.20;;;;;;;6.84;100.00;100259.31;4979954;28;20540;-53
2023/12/20 03:09:25;;;;;;;0.20;0.20;;;;;;;6.92;100.00;100266.28;4989287;28;20482;-54
2023/12/20 03:11:52;;;;;;;0.20;0.10;;;;;;;6.83;100.00;100262.00;4992130;28;20881;-53
2023/12/20 03:14:18;;;;;;;0.20;0.20;;;;;;;6.84;100.00;100266.38;4979690;28;20541;-53
2023/12/20 03:16:51;;;;;;;0.30;0.20;;;;;;;6.93;100.00;100276.84;4972972;28;20546;-53
2023/12/20 03:19:19;;;;;;;0.30;0.20;;;;;;;6.89;100.00;100276.91;4986018;28;20520;-54
2023/12/20 03:21:46;;;;;;;0.30;0.10;;;;;;;6.90;100.00;100270.72;4980544;28;20454;-54
2023/12/20 03:24:12;;;;;;;0.30;0.20;;;;;;;6.88;100.00;100276.03;4979220;28;20454;-53
2023/12/20 03:26:38;;;;;;;0.20;0.20;;;;;;;6.75;100.00;100283.25;4986539;28;20959;-53
2023/12/20 03:29:05;;;;;;;0.30;0.20;;;;;;;6.73;100.00;100270.97;4978950;28;20474;-54
2023/12/20 03:31:31;;;;;;;0.23;0.17;;;;;;;6.72;100.00;100278.00;4984607;28;20494;-53
2023/12/20 03:33:58;;;;;;;0.30;0.20;;;;;;;6.69;100.00;100277.16;4986917;28;20457;-53
2023/12/20 03:36:24;;;;;;;0.30;0.20;;;;;;;6.80;100.00;100285.81;4984110;28;20462;-54
2023/12/20 03:38:51;;;;;;;0.30;0.20;;;;;;;6.73;100.00;100282.41;4985648;28;20488;-53
2023/12/20 03:41:17;;;;;;;0.20;0.20;;;;;;;6.91;100.00;100289.19;4980892;28;20453;-53
2023/12/20 03:43:44;;;;;;;0.30;0.20;;;;;;;6.89;100.00;100288.34;4981283;28;20511;-53
2023/12/20 03:46:10;;;;;;;0.30;0.20;;;;;;;6.98;100.00;100285.56;4974266;28;21025;-54
2023/12/20 03:48:36;;;;;;;0.30;0.20;;;;;;;7.06;100.00;100282.81;4986621;28;20461;-53
2023/12/20 03:51:03;;;;;;;0.30;0.20;;;;;;;7.09;100.00;100293.34;4978130;28;20454;-53
2023/12/20 03:53:29;;;;;;;0.30;0.20;;;;;;;7.14;100.00;100275.66;4984712;28;20998;-53
2023/12/20 03:55:56;;;;;;;0.30;0.20;;;;;;;7.15;100.00;100281.81;4980563;28;20537;-53
2023/12/20 03:58:22;;;;;;;0.30;0.20;;;;;;;7.23;100.00;100282.56;4985601;28;20524;-53
2023/12/20 04:00:49;;;;;;;0.27;0.17;;;;;;;7.19;100.00;100287.03;4976139;28;20517;-53
2023/12/20 04:03:16;;;;;;;0.30;0.20;;;;;;;7.19;100.00;100286.16;4990660;28;20504;-53
2023/12/20 04:05:42;;;;;;;0.30;0.20;;;;;;;7.13;100.00;100295.06;4987826;28;20458;-53
2023/12/20 04:08:09;;;;;;;0.30;0.20;;;;;;;7.22;100.00;100286.09;4988795;28;20468;-53
2023/12/20 04:10:37;;;;;;;0.30;0.10;;;;;;;7.12;100.00;100293.28;4993337;28;20480;-53
2023/12/20 04:13:04;;;;;;;0.30;0.20;;;;;;;7.12;100.00;100288.00;4988896;28;20511;-53
2023/12/20 04:15:30;;;;;;;0.30;0.20;;;;;;;7.10;100.00;100298.59;4985122;28;20453;-54
2023/12/20 04:17:57;;;;;;;0.30;0.20;;;;;;;7.02;100.00;100303.16;4982525;28;20552;-53
2023/12/20 04:20:23;;;;;;;0.30;0.20;;;;;;;7.10;100.00;100316.22;4985059;28;20525;-53
2023/12/20 04:22:49;;;;;;;0.30;0.20;;;;;;;7.17;100.00;100314.38;4991510;28;20541;-53
2023/12/20 04:25:16;;;;;;;0.30;0.20;;;;;;;7.19;100.00;100313.47;4990169;28;20536;-53
2023/12/20 04:27:42;;;;;;;0.30;0.20;;;;;;;7.32;100.00;100322.09;4993500;28;20972;-53
2023/12/20 04:30:09;;;;;;;0.30;0.20;;;;;;;7.32;100.00;100316.81;4985461;28;20470;-54
2023/12/20 04:32:36;;;;;;;0.30;0.20;;;;;;;7.36;100.00;100324.66;4989243;28;20545;-53
2023/12/20 04:35:03;;;;;;;0.30;0.20;;;;;;;7.40;100.00;100328.13;4995487;28;20450;-53
2023/12/20 04:37:29;;;;;;;0.30;0.20;;;;;;;7.43;100.00;100342.19;4982355;28;20863;-53
2023/12/20 04:39:56;;;;;;;0.30;0.20;;;;;;;7.55;100.00;100338.50;4984808;28;20494;-53
2023/12/20 04:42:22;;;;;;;0.27;0.10;;;;;;;7.62;100.00;100348.06;4982267;28;20464;-53
2023/12/20 04:44:49;;;;;;;0.30;0.20;;;;;;;7.63;100.00;100356.88;4984617;28;20462;-53
2023/12/20 04:47:15;;;;;;;0.30;0.20;;;;;;;7.53;98.98;100361.41;4988503;28;21005;-54
2023/12/20 04:49:41;;;;;;;0.30;0.20;;;;;;;7.49;97.34;100372.09;4986378;28;20473;-54
2023/12/20 04:52:08;;;;;;;0.27;0.20;;;;;;;7.47;95.73;100368.59;4990839;28;21047;-53
2023/12/20 04:54:34;;;;;;;0.30;0.20;;;;;;;7.54;94.01;100373.78;4985912;28;20460;-53
2023/12/20 04:57:01;;;;;;;0.30;0.20;;;;;;;7.53;93.27;100393.16;4981575;28;21009;-54
2023/12/20 04:59:27;;;;;;;0.20;0.20;;;;;;;7.67;92.53;100391.19;4984783;28;20502;-53
2023/12/20 05:01:54;;;;;;;0.30;0.20;;;;;;;7.30;93.03;100385.56;4992427;28;20532;-54
2023/12/20 05:04:20;;;;;;;0.20;0.10;;;;;;;7.39;91.55;100373.97;4991047;28;20947;-53
2023/12/20 05:06:47;;;;;;;0.30;0.20;;;;;;;7.30;91.37;100379.41;4981642;28;20824;-53
2023/12/20 05:09:14;;;;;;;0.30;0.20;;;;;;;7.29;92.03;100375.03;4994620;28;20473;-54
2023/12/20 05:11:40;;;;;;;0.30;0.20;;;;;;;7.15;92.81;100379.63;4993798;28;20535;-54
2023/12/20 05:14:07;;;;;;;0.30;0.20;;;;;;;7.07;93.64;100383.22;4993659;28;20453;-53
2023/12/20 05:16:33;;;;;;;0.30;0.20;;;;;;;7.00;93.96;100389.50;4981581;28;20484;-53
2023/12/20 05:19:01;;;;;;;0.27;0.20;;;;;;;7.09;94.68;100386.72;4982872;28;20481;-53
2023/12/20 05:21:28;;;;;;;0.30;0.20;;;;;;;7.05;94.57;100389.44;4980715;28;20480;-53
2023/12/20 05:23:54;;;;;;;0.30;0.20;;;;;;;7.03;93.86;100389.44;4981999;28;20997;-53
2023/12/20 05:26:21;;;;;;;0.30;0.20;;;;;;;6.97;93.51;100383.34;4987817;28;20537;-53
2023/12/20 05:28:47;;;;;;;0.30;0.20;;;;;;;7.02;95.10;100384.19;4986951;28;21013;-53
2023/12/20 05:31:14;;;;;;;0.30;0.20;;;;;;;6.92;94.11;100382.56;4981205;28;21041;-53
2023/12/20 05:33:40;;;;;;;0.27;0.20;;;;;;;6.98;94.59;100377.16;4990516;28;20501;-54
2023/12/20 05:36:11;;;;;;;0.30;0.20;;;;;;;6.96;94.13;100382.47;4987976;28;20959;-53
2023/12/20 05:38:37;;;;;;;0.30;0.17;;;;;;;7.03;93.71;100383.28;4974385;28;20948;-54
2023/12/20 05:41:04;;;;;;;0.20;0.20;;;;;;;6.99;93.88;100371.00;4987253;28;20505;-53
2023/12/20 05:43:30;;;;;;;0.30;0.20;;;;;;;6.97;93.81;100378.94;4987931;28;20449;-53
2023/12/20 05:45:57;;;;;;;0.30;0.20;;;;;;;7.03;93.14;100376.25;4979002;28;20453;-54
2023/12/20 05:48:24;;;;;;;0.30;0.30;;;;;;;6.93;94.51;100385.16;4987615;28;20473;-53
2023/12/20 05:50:50;;;;;;;0.30;0.17;;;;;;;7.15;93.86;100388.44;4981427;28;20458;-54
2023/12/20 05:53:17;;;;;;;0.30;0.20;;;;;;;6.89;93.99;100379.94;4993542;28;20499;-53
2023/12/20 05:55:43;;;;;;;0.30;0.20;;;;;;;7.11;93.54;100378.75;4981170;28;20476;-53
2023/12/20 05:58:10;;;;;;;0.30;0.20;;;;;;;6.95;93.84;100379.84;4980964;28;20481;-53
2023/12/20 06:00:36;;;;;;;0.27;0.17;;;;;;;6.89;94.65;100382.59;4986862;28;20473;-54
2023/12/20 06:03:04;;;;;;;0.30;0.20;;;;;;;6.97;94.25;100384.22;4987954;28;20481;-53
2023/12/20 06:05:31;;;;;;;0.20;0.20;;;;;;;6.89;94.32;100385.22;4986201;28;20545;-54
2023/12/20 06:08:01;;;;;;;0.30;0.20;;;;;;;6.70;95.50;100388.06;4987404;28;20457;-53
2023/12/20 06:10:27;;;;;;;0.30;0.20;;;;;;;6.61;94.84;100398.75;4990054;28;20575;-53
2023/12/20 06:12:55;;;;;;;0.20;0.20;;;;;;;6.73;95.35;100397.75;4992671;28;20485;-53
2023/12/20 06:15:21;;;;;;;0.20;0.20;;;;;;;6.76;94.83;100410.91;4993861;28;20531;-53
2023/12/20 06:17:48;;;;;;;0.20;0.20;;;;;;;6.64;94.08;100416.31;4980428;28;20486;-53
2023/12/20 06:20:15;;;;;;;0.30;0.20;;;;;;;6.68;94.20;100418.91;4985069;28;21289;-53
2023/12/20 06:22:42;;;;;;;0.30;0.20;;;;;;;6.53;94.42;100413.78;4989239;28;20445;-53
2023/12/20 06:25:08;;;;;;;0.20;0.10;;;;;;;6.80;93.77;100416.13;4984481;28;20549;-53
2023/12/20 06:27:35;;;;;;;0.30;0.20;;;;;;;6.52;94.67;100414.69;4975899;28;20458;-54
2023/12/20 06:30:02;;;;;;;0.30;0.10;;;;;;;6.76;94.46;100418.84;4984901;28;20537;-55
2023/12/20 06:32:29;;;;;;;0.30;0.20;;;;;;;6.57;93.82;100407.59;4986668;28;20490;-54
2023/12/20 06:34:55;;;;;;;0.30;0.20;;;;;;;6.59;95.53;100415.50;4992567;28;20457;-54
2023/12/20 06:37:22;;;;;;;0.20;0.20;;;;;;;6.69;94.80;100419.78;4979748;28;20461;-53
2023/12/20 06:39:48;;;;;;;0.20;0.20;;;;;;;6.53;95.15;100419.06;4983523;28;20482;-53
2023/12/20 06:42:15;;;;;;;0.20;0.10;;;;;;;6.53;94.63;100412.03;4986868;28;20454;-53
2023/12/20 06:44:41;;;;;;;0.30;0.20;;;;;;;6.73;94.68;100409.19;4983089;28;20460;-54
2023/12/20 06:47:08;;;;;;;0.30;0.13;;;;;;;6.63;94.68;100406.66;4979722;28;20461;-53
2023/12/20 06:49:34;;;;;;;0.30;0.20;;;;;;;6.63;95.05;100410.19;4982910;28;20473;-53
2023/12/20 06:52:01;;;;;;;0.20;0.20;;;;;;;6.60;94.99;100418.13;4979596;28;20533;-53
2023/12/20 06:54:27;;;;;;;0.20;0.20;;;;;;;6.56;94.33;100415.53;4983162;28;20454;-53
2023/12/20 06:56:54;;;;;;;0.20;0.10;;;;;;;6.46;94.54;100407.72;4986328;28;20457;-54
2023/12/20 06:59:20;;;;;;;0.30;0.20;;;;;;;6.53;94.58;100413.78;4983205;28;20647;-55
2023/12/20 07:01:50;;;;;;;0.20;0.10;;;;;;;6.54;95.05;100413.78;4979898;28;20453;-53
2023/12/20 07:04:21;;;;;;;0.20;0.20;;;;;;;6.46;94.48;100407.72;4992535;28;20979;-53
2023/12/20 07:06:51;;;;;;;0.30;0.20;;;;;;;6.36;95.33;100419.25;4979349;28;20537;-53
2023/12/20 07:09:17;;;;;;;0.20;0.10;;;;;;;6.49;95.06;100423.53;4987444;28;20469;-53
2023/12/20 07:11:44;;;;;;;0.20;0.17;;;;;;;6.26;95.34;100427.25;4992597;28;20446;-53
2023/12/20 07:14:10;;;;;;;0.30;0.20;;;;;;;6.39;95.53;100426.25;4987905;28;21021;-54
2023/12/20 07:16:36;;;;;;;0.20;0.10;;;;;;;6.30;95.49;100432.47;4987063;28;20461;-54
2023/12/20 07:19:03;;;;;;;0.20;0.17;;;;;;;6.47;94.97;100442.91;4984611;28;21012;-54
2023/12/20 07:21:29;;;;;;;0.20;0.20;;;;;;;6.31;94.99;100433.38;4979647;28;20456;-53
2023/12/20 07:23:56;;;;;;;0.23;0.20;;;;;;;6.41;95.46;100443.81;4980539;28;20446;-54
2023/12/20 07:26:23;;;;;;;0.20;0.20;;;;;;;6.32;95.68;100441.28;4985888;28;20455;-55
2023/12/20 07:28:49;;;;;;;0.20;0.20;;;;;;;6.30;95.22;100456.25;4985199;28;20501;-53
2023/12/20 07:31:16;;;;;;;0.20;0.20;;;;;;;6.25;95.43;100458.06;4979113;28;20449;-53
2023/12/20 07:33:43;;;;;;;0.20;0.20;;;;;;;6.20;95.20;100449.31;4988727;28;20489;-53
2023/12/20 07:36:09;;;;;;;0.20;0.20;;;;;;;6.04;95.91;100456.47;4985345;28;20497;-53
2023/12/20 07:38:36;;;;;;;0.30;0.20;;;;;;;6.11;95.18;100454.66;4985350;28;20549;-53
2023/12/20 07:41:02;;;;;;;0.20;0.10;;;;;;;6.11;95.32;100455.53;4978615;28;20532;-54
2023/12/20 07:43:29;;;;;;;0.20;0.20;;;;;;;5.89;95.59;100456.53;4979471;28;21013;-53
2023/12/20 07:45:55;;;;;;;0.20;0.10;;;;;;;5.80;96.30;100469.78;4978602;28;20544;-53
2023/12/20 07:48:22;;;;;;;0.23;0.20;;;;;;;5.81;97.36;100474.19;4984393;28;20470;-53
2023/12/20 07:50:49;;;;;;;0.20;0.20;;;;;;;5.88;95.98;100475.88;4979060;28;20512;-54
2023/12/20 07:53:15;;;;;;;0.30;0.20;;;;;;;5.87;96.47;100471.50;4978974;28;20970;-53
2023/12/20 07:55:42;;;;;;;0.23;0.20;;;;;;;5.89;96.41;100467.06;4978777;28;20857;-53
2023/12/20 07:58:09;;;;;;;0.23;0.20;;;;;;;5.95;96.84;100472.38;4979141;28;20454;-54
2023/12/20 08:00:35;;;;;;;0.30;0.20;;;;;;;5.94;96.35;100481.16;4978515;28;20896;-53
2023/12/20 08:03:03;;;;;;;0.30;0.20;;;;;;;5.99;96.74;100478.50;4982739;28;20477;-54
2023/12/20 08:05:30;;;;;;;0.20;0.10;;;;;;;5.94;96.42;100475.88;4985027;28;20459;-54
2023/12/20 08:07:56;;;;;;;0.20;0.10;;;;;;;6.06;96.90;100473.16;4985562;28;20457;-54
2023/12/20 08:10:22;;;;;;;0.20;0.20;;;;;;;6.29;97.11;100467.69;4987722;28;20817;-54
2023/12/20 08:12:49;;;;;;;0.20;0.13;;;;;;;6.24;96.49;100473.00;4991059;28;20489;-54
2023/12/20 08:15:15;;;;;;;0.20;0.20;;;;;;;6.32;96.58;100475.59;4987045;28;20454;-54
2023/12/20 08:17:42;;;;;;;0.20;0.10;;;;;;;6.52;95.58;100483.34;4978890;28;20951;-54
2023/12/20 08:20:09;;;;;;;0.20;0.20;;;;;;;6.66;95.87;100477.94;4984498;28;20480;-54
2023/12/20 08:22:35;;;;;;;0.20;0.10;;;;;;;6.72;96.80;100475.25;4985321;28;20802;-54
2023/12/20 08:25:03;;;;;;;0.20;0.20;;;;;;;6.61;96.54;100480.63;4980151;28;20472;-54
2023/12/20 08:27:31;;;;;;;0.20;0.20;;;;;;;6.72;96.30;100485.81;4978963;28;20450;-54
2023/12/20 08:29:58;;;;;;;0.20;0.20;;;;;;;6.67;96.94;100477.91;4983535;28;20470;-54
2023/12/20 08:32:27;;;;;;;0.20;0.20;;;;;;;6.64;96.54;100487.63;4985183;28;20896;-54
2023/12/20 08:34:54;;;;;;;0.20;0.17;;;;;;;6.73;97.01;100493.72;4991356;28;20453;-54
2023/12/20 08:37:20;;;;;;;0.20;0.10;;;;;;;7.00;95.53;100484.63;4978925;28;20458;-54
2023/12/20 08:39:47;;;;;;;0.20;0.10;;;;;;;6.89;95.81;100477.72;4982597;28;20486;-54
2023/12/20 08:42:13;;;;;;;0.20;0.10;;;;;;;6.97;96.08;100473.19;4985178;28;20461;-54
2023/12/20 08:44:40;;;;;;;0.30;0.20;;;;;;;7.05;95.71;100484.56;4981288;28;20624;-53
2023/12/20 08:47:07;;;;;;;0.20;0.10;;;;;;;7.02;95.94;100474.91;4979671;28;20544;-54
2023/12/20 08:49:33;;;;;;;0.20;0.20;;;;;;;7.14;96.09;100487.13;4991437;28;20469;-54
2023/12/20 08:52:00;;;;;;;0.30;0.20;;;;;;;7.18;95.48;100493.25;4982402;28;20453;-55
2023/12/20 08:54:26;;;;;;;0.20;0.13;;;;;;;7.18;95.97;100501.16;4985206;28;20490;-54
2023/12/20 08:56:53;;;;;;;0.20;0.20;;;;;;;7.29;95.79;100501.94;4988545;28;20540;-55
2023/12/20 08:59:19;;;;;;;0.30;0.20;;;;;;;7.19;96.00;100498.50;4985518;28;20531;-55
2023/12/20 09:01:47;;;;;;;0.30;0.10;;;;;;;7.50;95.30;100498.13;4982217;28;20941;-55
2023/12/20 09:04:14;;;;;;;0.30;0.10;;;;;;;7.56;94.64;100495.44;4994976;28;20473;-54
2023/12/20 09:06:41;;;;;;;0.20;0.20;;;;;;;7.41;96.01;100492.09;4981485;28;20462;-54
2023/12/20 09:09:10;;;;;;;0.30;0.17;;;;;;;7.30;95.66;100491.34;4989665;28;20516;-55
2023/12/20 09:11:36;;;;;;;0.30;0.20;;;;;;;7.60;95.78;100500.66;4994438;28;20524;-54
2023/12/20 09:14:03;;;;;;;0.20;0.20;;;;;;;7.30;95.32;100504.56;4984155;28;20540;-54
2023/12/20 09:16:31;;;;;;;0.30;0.20;;;;;;;7.43;95.97;100502.63;4992529;28;20453;-54
2023/12/20 09:18:58;;;;;;;0.20;0.20;;;;;;;7.64;95.16;100501.47;4984543;28;20478;-54
2023/12/20 09:21:24;;;;;;;0.30;0.20;;;;;;;7.58;94.38;100504.22;4988070;28;20463;-54
2023/12/20 09:23:51;;;;;;;0.30;0.20;;;;;;;7.55;95.91;100504.25;4986014;28;20536;-54
2023/12/20 09:26:17;;;;;;;0.30;0.20;;;;;;;7.46;95.39;100497.31;4980997;28;20450;-54
2023/12/20 09:28:45;;;;;;;0.30;0.20;;;;;;;7.64;95.28;100490.88;4983792;28;20470;-54
2023/12/20 09:31:11;;;;;;;0.30;0.20;;;;;;;7.57;95.69;100490.09;4988075;28;20450;-54
2023/12/20 09:33:38;;;;;;;0.23;0.20;;;;;;;7.71;95.33;100495.22;4985863;28;20489;-54
2023/12/20 09:36:05;;;;;;;0.30;0.20;;;;;;;7.52;94.90;100494.56;4989445;28;20967;-54
2023/12/20 09:38:32;;;;;;;0.30;0.20;;;;;;;7.73;95.52;100502.22;4986038;28;20946;-55
2023/12/20 09:40:58;;;;;;;0.30;0.20;;;;;;;7.61;95.26;100501.53;4980992;28;20537;-54
2023/12/20 09:43:29;;;;;;;0.30;0.13;;;;;;;7.59;95.69;100501.53;4982510;28;20541;-54
2023/12/20 09:46:02;;;;;;;0.30;0.20;;;;;;;7.82;94.53;100501.25;4987827;28;20457;-54
2023/12/20 09:48:30;;;;;;;0.30;0.20;;;;;;;7.85;94.87;100508.25;4987539;28;20424;-54
2023/12/20 09:50:56;;;;;;;0.30;0.20;;;;;;;7.65;94.83;100509.38;4975155;28;20533;-55
2023/12/20 09:53:29;;;;;;;0.30;0.20;;;;;;;7.81;95.38;100504.78;4987358;28;20521;-54
2023/12/20 09:55:59;;;;;;;0.30;0.20;;;;;;;7.91;94.88;100492.28;4982675;28;20512;-54
2023/12/20 09:58:26;;;;;;;0.30;0.20;;;;;;;7.95;94.24;100488.72;4979882;28;20429;-54
2023/12/20 10:00:55;;;;;;;0.30;0.20;;;;;;;8.19;93.63;100490.09;4985213;28;20454;-54
2023/12/20 10:03:25;;;;;;;0.30;0.20;;;;;;;8.13;92.77;100501.66;4989689;28;20420;-54
2023/12/20 10:05:57;;;;;;;0.30;0.20;;;;;;;8.41;92.48;100517.16;4984140;28;20508;-54
2023/12/20 10:08:24;;;;;;;0.30;0.20;;;;;;;8.40;92.35;100518.06;4987070;28;20450;-54
2023/12/20 10:10:51;;;;;;;0.30;0.20;;;;;;;8.17;92.99;100513.06;4993291;28;20442;-54
2023/12/20 10:13:18;;;;;;;0.30;0.20;;;;;;;8.39;92.51;100514.53;4988731;28;20501;-54
2023/12/20 10:15:44;;;;;;;0.30;0.10;;;;;;;8.43;91.91;100510.06;4985138;28;20818;-54
2023/12/20 10:18:12;;;;;;;0.30;0.20;;;;;;;8.00;93.21;100500.97;4988645;28;21025;-54
2023/12/20 10:20:40;;;;;;;0.30;0.20;;;;;;;8.16;93.04;100503.38;4985909;28;20480;-54
2023/12/20 10:23:07;;;;;;;0.30;0.20;;;;;;;8.12;92.38;100499.03;4980231;28;20458;-54
2023/12/20 10:25:34;;;;;;;0.30;0.20;;;;;;;8.10;93.19;100493.78;4981198;28;20454;-54
2023/12/20 10:28:10;;;;;;;0.30;0.20;;;;;;;8.24;92.34;100483.84;4986603;28;20825;-54
2023/12/20 10:30:37;;;;;;;0.30;0.20;;;;;;;8.09;92.48;100492.03;4986393;28;20477;-54
2023/12/20 10:33:05;;;;;;;0.30;0.20;;;;;;;8.00;91.94;100473.63;4980758;28;20452;-54
2023/12/20 10:35:32;;;;;;;0.30;0.20;;;;;;;7.97;92.39;100471.91;4992198;28;20458;-55
2023/12/20 10:38:03;;;;;;;0.30;0.20;;;;;;;8.12;92.96;100472.56;4981340;28;20481;-55
2023/12/20 10:40:31;;;;;;;0.30;0.20;;;;;;;8.14;92.11;100473.41;4979649;28;20571;-54
2023/12/20 10:42:58;;;;;;;0.30;0.20;;;;;;;8.32;91.64;100465.16;4984679;28;20457;-54
2023/12/20 10:45:25;;;;;;;0.30;0.20;;;;;;;8.35;91.34;100459.84;4986439;28;20500;-54
2023/12/20 10:47:52;;;;;;;0.30;0.20;;;;;;;8.42;91.92;100456.19;4982613;28;20511;-54
2023/12/20 10:50:20;;;;;;;0.30;0.20;;;;;;;8.35;91.51;100457.19;4979631;28;20474;-54
2023/12/20 10:52:47;;;;;;;0.30;0.20;;;;;;;8.31;92.24;100453.69;4986584;28;20508;-55
2023/12/20 10:55:14;;;;;;;0.30;0.20;;;;;;;8.38;92.18;100454.50;4979602;28;20497;-55
2023/12/20 10:57:42;;;;;;;0.30;0.20;;;;;;;8.51;91.99;100450.75;4983628;28;20465;-55
2023/12/20 11:00:14;;;;;;;0.30;0.20;;;;;;;8.47;90.67;100454.34;4986582;28;20553;-55
2023/12/20 11:02:42;;;;;;;0.30;0.20;;;;;;;8.37;90.65;100443.94;4982711;28;20540;-54
2023/12/20 11:05:27;;;;;;;0.30;0.20;;;;;;;8.50;90.30;100456.09;4988560;28;20421;-55
2023/12/20 11:08:12;;;;;;;0.30;0.20;;;;;;;8.60;89.40;100458.53;4986169;28;20954;-55
2023/12/20 11:11:03;;;;;;;0.30;0.20;;;;;;;8.60;88.81;100455.88;4990516;28;20806;-54
2023/12/20 11:13:39;;;;;;;0.30;0.20;;;;;;;8.63;88.40;100446.97;4986321;28;20933;-54
2023/12/20 11:16:07;;;;;;;0.30;0.20;;;;;;;8.43;86.06;100439.41;4987030;28;20445;-54
2023/12/20 11:18:34;;;;;;;0.30;0.20;;;;;;;8.37;86.39;100443.94;4984240;28;20505;-54
2023/12/20 11:21:10;;;;;;;0.30;0.20;;;;;;;8.40;86.26;100443.91;4986230;28;20432;-54
2023/12/20 11:23:37;;;;;;;0.30;0.20;;;;;;;8.31;86.19;100444.88;4982438;28;20536;-53
2023/12/20 11:26:03;;;;;;;6.47;6.03;;;;;;;8.35;86.38;100443.94;4979110;28;20461;-53
2023/12/20 11:28:30;;;;;;;0.30;0.20;;;;;;;8.44;87.05;100458.81;4983075;28;20519;-53